sensor_id;sensor_type;location;lat;lon;timestamp;pressure;altitude;pressure_sealevel;temperature;humidity
58072;BME280;60383;46.626;18.866;2023-05-09T00:00:27;101194.38;;;9.40;56.96
58072;BME280;60383;46.626;18.866;2023-05-09T00:02:52;101199.09;;;9.38;57.34
58072;BME280;60383;46.626;18.866;2023-05-09T00:05:19;101194.66;;;9.37;57.76
58072;BME280;60383;46.626;18.866;2023-05-09T00:07:46;101193.78;;;9.36;57.45
58072;BME280;60383;46.626;18.866;2023-05-09T00:10:11;101191.78;;;9.38;57.51
58072;BME280;60383;46.626;18.866;2023-05-09T00:12:37;101195.03;;;9.32;57.46
58072;BME280;60383;46.626;18.866;2023-05-09T00:15:03;101189.81;;;9.29;58.15
58072;BME280;60383;46.626;18.866;2023-05-09T00:17:32;101187.22;;;9.27;58.30
58072;BME280;60383;46.626;18.866;2023-05-09T00:19:58;101190.91;;;9.38;58.42
58072;BME280;60383;46.626;18.866;2023-05-09T00:22:26;101189.09;;;8.94;59.29
58072;BME280;60383;46.626;18.866;2023-05-09T00:24:52;101191.53;;;9.09;59.17
58072;BME280;60383;46.626;18.866;2023-05-09T00:27:17;101188.13;;;9.17;58.74
58072;BME280;60383;46.626;18.866;2023-05-09T00:29:43;101176.34;;;9.16;58.66
58072;BME280;60383;46.626;18.866;2023-05-09T00:32:09;101183.56;;;9.06;58.79
58072;BME280;60383;46.626;18.866;2023-05-09T00:34:35;101179.72;;;9.08;59.11
58072;BME280;60383;46.626;18.866;2023-05-09T00:37:00;101183.81;;;9.14;58.85
58072;BME280;60383;46.626;18.866;2023-05-09T00:39:26;101174.53;;;9.05;58.78
58072;BME280;60383;46.626;18.866;2023-05-09T00:41:51;101180.66;;;8.86;59.43
58072;BME280;60383;46.626;18.866;2023-05-09T00:44:17;101180.56;;;8.76;60.01
58072;BME280;60383;46.626;18.866;2023-05-09T00:46:43;101185.75;;;8.79;60.05
58072;BME280;60383;46.626;18.866;2023-05-09T00:49:09;101184.13;;;8.77;60.25
58072;BME280;60383;46.626;18.866;2023-05-09T00:51:38;101195.09;;;8.66;60.74
58072;BME280;60383;46.626;18.866;2023-05-09T00:54:05;101185.13;;;8.76;60.69
58072;BME280;60383;46.626;18.866;2023-05-09T00:56:30;101187.75;;;8.66;60.53
58072;BME280;60383;46.626;18.866;2023-05-09T00:58:56;101192.09;;;8.35;61.54
58072;BME280;60383;46.626;18.866;2023-05-09T01:01:21;101182.19;;;8.34;61.86
58072;BME280;60383;46.626;18.866;2023-05-09T01:03:48;101179.69;;;8.30;61.39
58072;BME280;60383;46.626;18.866;2023-05-09T01:06:40;101175.47;;;8.38;61.72
58072;BME280;60383;46.626;18.866;2023-05-09T01:09:34;101177.38;;;8.49;61.38
58072;BME280;60383;46.626;18.866;2023-05-09T01:20:11;101169.16;;;8.60;60.51
58072;BME280;60383;46.626;18.866;2023-05-09T01:22:44;101164.53;;;8.72;60.21
58072;BME280;60383;46.626;18.866;2023-05-09T01:28:05;101151.22;;;8.90;59.34
58072;BME280;60383;46.626;18.866;2023-05-09T01:30:33;101155.56;;;8.92;59.34
58072;BME280;60383;46.626;18.866;2023-05-09T01:33:04;101155.75;;;8.68;59.54
58072;BME280;60383;46.626;18.866;2023-05-09T01:35:31;101159.78;;;8.85;59.24
58072;BME280;60383;46.626;18.866;2023-05-09T01:37:58;101149.44;;;8.68;59.46
58072;BME280;60383;46.626;18.866;2023-05-09T01:40:25;101154.56;;;8.82;59.22
58072;BME280;60383;46.626;18.866;2023-05-09T01:42:58;101153.47;;;8.85;59.49
58072;BME280;60383;46.626;18.866;2023-05-09T01:45:26;101146.94;;;8.65;60.00
58072;BME280;60383;46.626;18.866;2023-05-09T01:47:52;101159.59;;;8.66;59.78
58072;BME280;60383;46.626;18.866;2023-05-09T01:50:18;101139.06;;;8.83;59.62
58072;BME280;60383;46.626;18.866;2023-05-09T01:52:46;101134.59;;;8.82;60.08
58072;BME280;60383;46.626;18.866;2023-05-09T01:55:14;101132.69;;;8.50;60.22
58072;BME280;60383;46.626;18.866;2023-05-09T01:57:42;101147.81;;;8.20;61.09
58072;BME280;60383;46.626;18.866;2023-05-09T02:00:09;101138.53;;;8.34;61.25
58072;BME280;60383;46.626;18.866;2023-05-09T02:02:37;101137.66;;;8.22;61.55
58072;BME280;60383;46.626;18.866;2023-05-09T02:05:03;101145.09;;;8.42;61.23
58072;BME280;60383;46.626;18.866;2023-05-09T02:07:30;101148.69;;;8.31;60.81
58072;BME280;60383;46.626;18.866;2023-05-09T02:09:57;101151.41;;;8.31;61.34
58072;BME280;60383;46.626;18.866;2023-05-09T02:12:23;101154.38;;;8.28;61.03
58072;BME280;60383;46.626;18.866;2023-05-09T02:14:50;101149.78;;;8.40;60.81
58072;BME280;60383;46.626;18.866;2023-05-09T02:17:15;101144.22;;;8.30;60.98
58072;BME280;60383;46.626;18.866;2023-05-09T02:19:42;101140.50;;;8.31;61.33
58072;BME280;60383;46.626;18.866;2023-05-09T02:22:08;101143.25;;;8.20;61.28
58072;BME280;60383;46.626;18.866;2023-05-09T02:24:34;101156.13;;;8.29;61.70
58072;BME280;60383;46.626;18.866;2023-05-09T02:27:01;101142.25;;;8.10;61.88
58072;BME280;60383;46.626;18.866;2023-05-09T02:29:33;101138.25;;;8.14;61.95
58072;BME280;60383;46.626;18.866;2023-05-09T02:32:09;101140.88;;;8.15;61.65
58072;BME280;60383;46.626;18.866;2023-05-09T02:34:37;101124.16;;;8.20;61.91
58072;BME280;60383;46.626;18.866;2023-05-09T02:37:03;101130.06;;;8.14;61.08
58072;BME280;60383;46.626;18.866;2023-05-09T02:39:30;101131.56;;;8.07;61.98
58072;BME280;60383;46.626;18.866;2023-05-09T02:41:55;101134.06;;;7.98;61.92
58072;BME280;60383;46.626;18.866;2023-05-09T02:44:20;101132.19;;;7.99;61.86
58072;BME280;60383;46.626;18.866;2023-05-09T02:46:46;101127.09;;;7.94;62.49
58072;BME280;60383;46.626;18.866;2023-05-09T02:49:11;101125.25;;;7.95;62.30
58072;BME280;60383;46.626;18.866;2023-05-09T02:51:37;101129.22;;;8.02;62.06
58072;BME280;60383;46.626;18.866;2023-05-09T02:54:03;101125.13;;;8.08;62.55
58072;BME280;60383;46.626;18.866;2023-05-09T02:56:28;101132.81;;;8.14;62.15
58072;BME280;60383;46.626;18.866;2023-05-09T02:58:54;101125.25;;;7.95;62.87
58072;BME280;60383;46.626;18.866;2023-05-09T03:01:19;101131.06;;;8.02;62.42
58072;BME280;60383;46.626;18.866;2023-05-09T03:03:45;101127.34;;;7.80;62.98
58072;BME280;60383;46.626;18.866;2023-05-09T03:06:10;101118.06;;;7.82;62.71
58072;BME280;60383;46.626;18.866;2023-05-09T03:08:36;101114.72;;;7.79;62.51
58072;BME280;60383;46.626;18.866;2023-05-09T03:11:01;101112.09;;;8.00;62.51
58072;BME280;60383;46.626;18.866;2023-05-09T03:13:27;101125.84;;;7.87;62.49
58072;BME280;60383;46.626;18.866;2023-05-09T03:15:52;101116.69;;;7.88;62.72
58072;BME280;60383;46.626;18.866;2023-05-09T03:18:18;101117.44;;;8.02;62.22
58072;BME280;60383;46.626;18.866;2023-05-09T03:20:43;101120.16;;;7.90;62.18
58072;BME280;60383;46.626;18.866;2023-05-09T03:23:09;101127.09;;;7.83;62.33
58072;BME280;60383;46.626;18.866;2023-05-09T03:25:34;101125.34;;;7.93;62.64
58072;BME280;60383;46.626;18.866;2023-05-09T03:28:00;101121.28;;;7.99;62.75
58072;BME280;60383;46.626;18.866;2023-05-09T03:30:25;101121.16;;;8.00;62.23
58072;BME280;60383;46.626;18.866;2023-05-09T03:32:51;101124.88;;;7.88;62.39
58072;BME280;60383;46.626;18.866;2023-05-09T03:35:17;101124.75;;;8.01;62.39
58072;BME280;60383;46.626;18.866;2023-05-09T03:37:42;101129.84;;;8.17;61.60
58072;BME280;60383;46.626;18.866;2023-05-09T03:40:08;101129.09;;;8.15;62.08
58072;BME280;60383;46.626;18.866;2023-05-09T03:42:34;101134.19;;;8.20;61.56
58072;BME280;60383;46.626;18.866;2023-05-09T03:44:59;101130.69;;;8.18;62.13
58072;BME280;60383;46.626;18.866;2023-05-09T03:47:25;101139.34;;;8.45;61.24
58072;BME280;60383;46.626;18.866;2023-05-09T03:49:50;101137.28;;;8.49;61.42
58072;BME280;60383;46.626;18.866;2023-05-09T03:52:17;101145.38;;;8.51;60.70
58072;BME280;60383;46.626;18.866;2023-05-09T03:54:43;101139.13;;;8.60;60.88
58072;BME280;60383;46.626;18.866;2023-05-09T03:57:08;101134.75;;;8.69;60.55
58072;BME280;60383;46.626;18.866;2023-05-09T03:59:34;101131.53;;;8.75;60.20
58072;BME280;60383;46.626;18.866;2023-05-09T04:01:59;101131.34;;;8.99;59.37
58072;BME280;60383;46.626;18.866;2023-05-09T04:04:25;101128.63;;;9.20;58.88
58072;BME280;60383;46.626;18.866;2023-05-09T04:06:50;101137.22;;;9.16;58.76
58072;BME280;60383;46.626;18.866;2023-05-09T04:09:16;101133.09;;;9.21;58.99
58072;BME280;60383;46.626;18.866;2023-05-09T04:11:42;101129.97;;;9.47;57.91
58072;BME280;60383;46.626;18.866;2023-05-09T04:14:07;101134.31;;;9.50;58.04
58072;BME280;60383;46.626;18.866;2023-05-09T04:16:33;101134.69;;;9.45;57.71
58072;BME280;60383;46.626;18.866;2023-05-09T04:18:58;101142.44;;;9.61;57.57
58072;BME280;60383;46.626;18.866;2023-05-09T04:21:24;101138.59;;;9.64;57.53
58072;BME280;60383;46.626;18.866;2023-05-09T04:23:49;101138.09;;;9.80;57.01
58072;BME280;60383;46.626;18.866;2023-05-09T04:26:15;101145.06;;;9.63;57.54
58072;BME280;60383;46.626;18.866;2023-05-09T04:28:42;101135.19;;;10.02;56.24
58072;BME280;60383;46.626;18.866;2023-05-09T04:31:07;101135.69;;;10.17;55.27
58072;BME280;60383;46.626;18.866;2023-05-09T04:33:33;101137.06;;;10.02;55.72
58072;BME280;60383;46.626;18.866;2023-05-09T04:35:59;101145.38;;;9.90;57.07
58072;BME280;60383;46.626;18.866;2023-05-09T04:38:25;101142.75;;;10.20;56.02
58072;BME280;60383;46.626;18.866;2023-05-09T04:40:50;101139.50;;;10.36;54.84
58072;BME280;60383;46.626;18.866;2023-05-09T04:43:16;101145.22;;;10.23;55.98
58072;BME280;60383;46.626;18.866;2023-05-09T04:45:43;101139.91;;;10.31;55.54
58072;BME280;60383;46.626;18.866;2023-05-09T04:48:09;101140.13;;;10.39;55.55
58072;BME280;60383;46.626;18.866;2023-05-09T04:50:34;101133.13;;;10.57;54.45
58072;BME280;60383;46.626;18.866;2023-05-09T04:53:00;101139.16;;;10.50;54.42
58072;BME280;60383;46.626;18.866;2023-05-09T04:55:26;101136.03;;;10.34;55.47
58072;BME280;60383;46.626;18.866;2023-05-09T04:57:51;101143.78;;;10.29;55.93
58072;BME280;60383;46.626;18.866;2023-05-09T05:00:17;101134.72;;;10.28;55.53
58072;BME280;60383;46.626;18.866;2023-05-09T05:02:43;101140.06;;;10.30;55.65
58072;BME280;60383;46.626;18.866;2023-05-09T05:05:09;101140.72;;;10.43;55.47
58072;BME280;60383;46.626;18.866;2023-05-09T05:07:34;101145.63;;;10.49;55.33
58072;BME280;60383;46.626;18.866;2023-05-09T05:10:00;101147.69;;;10.57;55.46
58072;BME280;60383;46.626;18.866;2023-05-09T05:12:25;101157.97;;;10.75;55.25
58072;BME280;60383;46.626;18.866;2023-05-09T05:14:50;101152.31;;;10.76;54.75
58072;BME280;60383;46.626;18.866;2023-05-09T05:17:16;101146.84;;;10.76;55.16
58072;BME280;60383;46.626;18.866;2023-05-09T05:19:42;101151.72;;;10.63;55.52
58072;BME280;60383;46.626;18.866;2023-05-09T05:22:07;101151.91;;;10.81;55.05
58072;BME280;60383;46.626;18.866;2023-05-09T05:24:33;101153.81;;;10.80;54.62
58072;BME280;60383;46.626;18.866;2023-05-09T05:26:58;101161.31;;;10.88;55.59
58072;BME280;60383;46.626;18.866;2023-05-09T05:29:24;101163.47;;;11.04;55.05
58072;BME280;60383;46.626;18.866;2023-05-09T05:31:49;101159.72;;;11.05;54.77
58072;BME280;60383;46.626;18.866;2023-05-09T05:34:15;101156.38;;;10.82;55.60
58072;BME280;60383;46.626;18.866;2023-05-09T05:36:41;101160.16;;;11.00;55.23
58072;BME280;60383;46.626;18.866;2023-05-09T05:39:06;101160.00;;;10.92;55.38
58072;BME280;60383;46.626;18.866;2023-05-09T05:41:32;101161.31;;;10.88;56.12
58072;BME280;60383;46.626;18.866;2023-05-09T05:43:57;101156.72;;;11.08;55.78
58072;BME280;60383;46.626;18.866;2023-05-09T05:46:23;101155.25;;;11.14;55.10
58072;BME280;60383;46.626;18.866;2023-05-09T05:48:48;101163.63;;;11.12;55.83
58072;BME280;60383;46.626;18.866;2023-05-09T05:51:14;101152.25;;;11.17;55.67
58072;BME280;60383;46.626;18.866;2023-05-09T05:53:39;101159.59;;;11.26;56.07
58072;BME280;60383;46.626;18.866;2023-05-09T05:56:05;101147.78;;;11.26;55.67
58072;BME280;60383;46.626;18.866;2023-05-09T05:58:30;101152.50;;;11.43;54.87
58072;BME280;60383;46.626;18.866;2023-05-09T06:00:56;101148.63;;;11.46;55.21
58072;BME280;60383;46.626;18.866;2023-05-09T06:03:21;101143.72;;;11.49;54.72
58072;BME280;60383;46.626;18.866;2023-05-09T06:05:47;101137.94;;;11.43;54.94
58072;BME280;60383;46.626;18.866;2023-05-09T06:08:12;101142.84;;;11.39;55.97
58072;BME280;60383;46.626;18.866;2023-05-09T06:10:38;101148.31;;;11.59;57.01
58072;BME280;60383;46.626;18.866;2023-05-09T06:13:03;101159.81;;;11.82;54.88
58072;BME280;60383;46.626;18.866;2023-05-09T06:15:29;101157.38;;;11.89;54.36
58072;BME280;60383;46.626;18.866;2023-05-09T06:17:55;101146.75;;;11.46;54.78
58072;BME280;60383;46.626;18.866;2023-05-09T06:20:20;101152.78;;;11.60;55.76
58072;BME280;60383;46.626;18.866;2023-05-09T06:22:46;101152.88;;;11.88;55.63
58072;BME280;60383;46.626;18.866;2023-05-09T06:25:11;101149.53;;;12.04;55.89
58072;BME280;60383;46.626;18.866;2023-05-09T06:27:37;101143.91;;;11.95;54.71
58072;BME280;60383;46.626;18.866;2023-05-09T06:30:03;101153.91;;;11.96;53.82
58072;BME280;60383;46.626;18.866;2023-05-09T06:32:29;101148.25;;;11.98;54.76
58072;BME280;60383;46.626;18.866;2023-05-09T06:34:54;101141.84;;;12.17;55.48
58072;BME280;60383;46.626;18.866;2023-05-09T06:37:20;101135.00;;;12.31;53.38
58072;BME280;60383;46.626;18.866;2023-05-09T06:39:45;101140.00;;;12.08;54.94
58072;BME280;60383;46.626;18.866;2023-05-09T06:42:11;101137.88;;;12.29;54.73
58072;BME280;60383;46.626;18.866;2023-05-09T06:44:36;101130.81;;;12.55;53.01
58072;BME280;60383;46.626;18.866;2023-05-09T06:47:02;101135.56;;;12.62;53.80
58072;BME280;60383;46.626;18.866;2023-05-09T06:49:27;101135.25;;;12.66;53.58
58072;BME280;60383;46.626;18.866;2023-05-09T06:51:53;101126.78;;;12.77;54.70
58072;BME280;60383;46.626;18.866;2023-05-09T06:54:18;101125.06;;;12.76;53.21
58072;BME280;60383;46.626;18.866;2023-05-09T06:56:44;101130.25;;;12.97;53.90
58072;BME280;60383;46.626;18.866;2023-05-09T06:59:09;101121.63;;;13.28;55.06
58072;BME280;60383;46.626;18.866;2023-05-09T07:01:38;101115.78;;;13.31;52.75
58072;BME280;60383;46.626;18.866;2023-05-09T07:04:04;101113.44;;;13.18;53.41
58072;BME280;60383;46.626;18.866;2023-05-09T07:06:30;101114.31;;;13.37;52.13
58072;BME280;60383;46.626;18.866;2023-05-09T07:08:55;101112.34;;;13.29;52.49
58072;BME280;60383;46.626;18.866;2023-05-09T07:11:21;101111.13;;;13.41;52.31
58072;BME280;60383;46.626;18.866;2023-05-09T07:13:46;101101.84;;;13.69;52.68
58072;BME280;60383;46.626;18.866;2023-05-09T07:16:12;101107.94;;;13.81;51.12
58072;BME280;60383;46.626;18.866;2023-05-09T07:18:37;101107.25;;;13.79;51.11
58072;BME280;60383;46.626;18.866;2023-05-09T07:21:03;101092.03;;;14.01;51.50
58072;BME280;60383;46.626;18.866;2023-05-09T07:23:29;101102.13;;;14.18;50.54
58072;BME280;60383;46.626;18.866;2023-05-09T07:25:55;101094.59;;;14.20;50.84
58072;BME280;60383;46.626;18.866;2023-05-09T07:28:22;101100.75;;;14.22;50.28
58072;BME280;60383;46.626;18.866;2023-05-09T07:30:47;101087.88;;;14.23;50.29
58072;BME280;60383;46.626;18.866;2023-05-09T07:33:13;101087.97;;;14.05;50.35
58072;BME280;60383;46.626;18.866;2023-05-09T07:35:38;101082.16;;;14.16;51.60
58072;BME280;60383;46.626;18.866;2023-05-09T07:38:04;101080.50;;;13.97;49.84
58072;BME280;60383;46.626;18.866;2023-05-09T07:40:31;101069.25;;;14.25;50.49
58072;BME280;60383;46.626;18.866;2023-05-09T07:42:57;101073.63;;;14.36;51.78
58072;BME280;60383;46.626;18.866;2023-05-09T07:45:23;101070.31;;;14.67;50.98
58072;BME280;60383;46.626;18.866;2023-05-09T07:47:49;101058.47;;;14.91;49.07
58072;BME280;60383;46.626;18.866;2023-05-09T07:50:14;101060.88;;;14.86;47.97
58072;BME280;60383;46.626;18.866;2023-05-09T07:52:41;101056.22;;;14.87;48.35
58072;BME280;60383;46.626;18.866;2023-05-09T07:55:06;101060.19;;;14.92;48.09
58072;BME280;60383;46.626;18.866;2023-05-09T07:57:32;101057.41;;;14.76;48.91
58072;BME280;60383;46.626;18.866;2023-05-09T07:59:58;101050.16;;;14.83;48.13
58072;BME280;60383;46.626;18.866;2023-05-09T08:02:23;101052.09;;;15.07;47.60
58072;BME280;60383;46.626;18.866;2023-05-09T08:04:48;101052.84;;;14.58;48.17
58072;BME280;60383;46.626;18.866;2023-05-09T08:07:14;101045.50;;;14.83;48.60
58072;BME280;60383;46.626;18.866;2023-05-09T08:09:40;101053.09;;;14.73;48.29
58072;BME280;60383;46.626;18.866;2023-05-09T08:12:05;101048.97;;;15.18;47.66
58072;BME280;60383;46.626;18.866;2023-05-09T08:14:31;101046.72;;;15.39;48.52
58072;BME280;60383;46.626;18.866;2023-05-09T08:16:56;101041.03;;;14.99;49.79
58072;BME280;60383;46.626;18.866;2023-05-09T08:19:22;101046.03;;;15.28;49.54
58072;BME280;60383;46.626;18.866;2023-05-09T08:21:50;101044.47;;;15.51;46.55
58072;BME280;60383;46.626;18.866;2023-05-09T08:24:16;101042.25;;;15.38;47.69
58072;BME280;60383;46.626;18.866;2023-05-09T08:26:41;101043.22;;;15.86;46.68
58072;BME280;60383;46.626;18.866;2023-05-09T08:29:08;101046.84;;;15.78;45.56
58072;BME280;60383;46.626;18.866;2023-05-09T08:31:33;101048.38;;;15.89;45.85
58072;BME280;60383;46.626;18.866;2023-05-09T08:33:59;101047.19;;;15.84;46.23
58072;BME280;60383;46.626;18.866;2023-05-09T08:36:25;101042.75;;;15.49;46.53
58072;BME280;60383;46.626;18.866;2023-05-09T08:38:50;101040.81;;;15.75;47.65
58072;BME280;60383;46.626;18.866;2023-05-09T08:41:16;101054.53;;;16.08;47.47
58072;BME280;60383;46.626;18.866;2023-05-09T08:43:42;101046.63;;;16.36;47.08
58072;BME280;60383;46.626;18.866;2023-05-09T08:46:09;101033.53;;;16.61;45.37
58072;BME280;60383;46.626;18.866;2023-05-09T08:48:35;101029.34;;;16.66;45.05
58072;BME280;60383;46.626;18.866;2023-05-09T08:51:05;101033.22;;;16.56;45.72
58072;BME280;60383;46.626;18.866;2023-05-09T08:53:31;101033.63;;;16.45;46.58
58072;BME280;60383;46.626;18.866;2023-05-09T08:55:59;101021.78;;;16.59;45.20
58072;BME280;60383;46.626;18.866;2023-05-09T08:58:26;101022.91;;;16.73;44.92
58072;BME280;60383;46.626;18.866;2023-05-09T09:00:52;101019.91;;;16.83;45.21
58072;BME280;60383;46.626;18.866;2023-05-09T09:03:19;101021.25;;;16.87;44.23
58072;BME280;60383;46.626;18.866;2023-05-09T09:05:45;101020.94;;;16.82;44.67
58072;BME280;60383;46.626;18.866;2023-05-09T09:08:13;101021.59;;;17.16;43.55
58072;BME280;60383;46.626;18.866;2023-05-09T09:10:40;101013.28;;;17.16;45.15
58072;BME280;60383;46.626;18.866;2023-05-09T09:13:12;101002.16;;;17.54;45.06
58072;BME280;60383;46.626;18.866;2023-05-09T09:15:40;100991.09;;;17.84;42.73
58072;BME280;60383;46.626;18.866;2023-05-09T09:18:11;100994.03;;;18.27;41.93
58072;BME280;60383;46.626;18.866;2023-05-09T09:20:52;100992.34;;;18.11;41.69
58072;BME280;60383;46.626;18.866;2023-05-09T09:23:23;100999.88;;;18.17;41.50
58072;BME280;60383;46.626;18.866;2023-05-09T09:25:56;101002.91;;;18.23;41.26
58072;BME280;60383;46.626;18.866;2023-05-09T09:28:22;101001.81;;;18.17;41.30
58072;BME280;60383;46.626;18.866;2023-05-09T09:30:48;100999.78;;;17.81;40.42
58072;BME280;60383;46.626;18.866;2023-05-09T09:33:24;100997.69;;;18.13;40.90
58072;BME280;60383;46.626;18.866;2023-05-09T09:35:51;100992.22;;;18.19;41.35
58072;BME280;60383;46.626;18.866;2023-05-09T09:38:18;100992.63;;;18.01;42.19
58072;BME280;60383;46.626;18.866;2023-05-09T09:40:57;100982.88;;;18.20;42.33
58072;BME280;60383;46.626;18.866;2023-05-09T09:43:30;100990.63;;;18.47;39.79
58072;BME280;60383;46.626;18.866;2023-05-09T09:45:56;100992.09;;;18.64;41.24
58072;BME280;60383;46.626;18.866;2023-05-09T09:48:34;100979.66;;;18.97;41.96
58072;BME280;60383;46.626;18.866;2023-05-09T09:51:07;100985.75;;;19.36;39.15
58072;BME280;60383;46.626;18.866;2023-05-09T09:53:43;100975.38;;;19.23;38.35
58072;BME280;60383;46.626;18.866;2023-05-09T09:56:09;100975.16;;;19.24;38.32
58072;BME280;60383;46.626;18.866;2023-05-09T09:58:35;100971.09;;;19.20;39.37
58072;BME280;60383;46.626;18.866;2023-05-09T10:01:11;100968.25;;;19.42;38.37
58072;BME280;60383;46.626;18.866;2023-05-09T10:03:42;100970.47;;;19.53;37.74
58072;BME280;60383;46.626;18.866;2023-05-09T10:06:13;100969.72;;;19.38;38.78
58072;BME280;60383;46.626;18.866;2023-05-09T10:08:40;100966.66;;;19.61;37.63
58072;BME280;60383;46.626;18.866;2023-05-09T10:11:06;100974.66;;;19.42;39.08
58072;BME280;60383;46.626;18.866;2023-05-09T10:13:33;100964.31;;;19.58;39.28
58072;BME280;60383;46.626;18.866;2023-05-09T10:16:00;100963.94;;;19.39;38.95
58072;BME280;60383;46.626;18.866;2023-05-09T10:18:28;100957.31;;;19.69;37.38
58072;BME280;60383;46.626;18.866;2023-05-09T10:20:56;100953.19;;;19.58;38.98
58072;BME280;60383;46.626;18.866;2023-05-09T10:23:25;100956.72;;;19.80;39.02
58072;BME280;60383;46.626;18.866;2023-05-09T10:26:23;100952.22;;;19.72;38.14
58072;BME280;60383;46.626;18.866;2023-05-09T10:28:57;100950.06;;;19.74;39.01
58072;BME280;60383;46.626;18.866;2023-05-09T10:31:27;100947.47;;;20.08;37.74
58072;BME280;60383;46.626;18.866;2023-05-09T10:33:54;100955.38;;;20.04;37.68
58072;BME280;60383;46.626;18.866;2023-05-09T10:36:23;100958.09;;;19.56;37.06
58072;BME280;60383;46.626;18.866;2023-05-09T10:38:53;100952.75;;;19.61;37.91
58072;BME280;60383;46.626;18.866;2023-05-09T10:41:19;100957.44;;;19.89;37.12
58072;BME280;60383;46.626;18.866;2023-05-09T10:43:46;100951.75;;;20.10;37.70
58072;BME280;60383;46.626;18.866;2023-05-09T10:46:13;100952.06;;;20.36;35.42
58072;BME280;60383;46.626;18.866;2023-05-09T10:48:40;100957.06;;;20.67;35.56
58072;BME280;60383;46.626;18.866;2023-05-09T10:51:06;100953.19;;;20.62;36.71
58072;BME280;60383;46.626;18.866;2023-05-09T10:53:50;100949.69;;;20.33;36.93
58072;BME280;60383;46.626;18.866;2023-05-09T10:58:48;100953.88;;;20.02;37.95
58072;BME280;60383;46.626;18.866;2023-05-09T11:01:27;100944.16;;;20.46;37.96
58072;BME280;60383;46.626;18.866;2023-05-09T11:03:54;100941.78;;;20.36;36.23
58072;BME280;60383;46.626;18.866;2023-05-09T11:11:55;100929.94;;;19.66;38.73
58072;BME280;60383;46.626;18.866;2023-05-09T11:14:28;100926.38;;;20.27;37.41
58072;BME280;60383;46.626;18.866;2023-05-09T11:17:02;100930.47;;;20.45;36.75
58072;BME280;60383;46.626;18.866;2023-05-09T11:19:59;100921.94;;;20.66;36.29
58072;BME280;60383;46.626;18.866;2023-05-09T11:22:47;100913.19;;;20.69;37.55
58072;BME280;60383;46.626;18.866;2023-05-09T11:25:13;100904.88;;;20.96;37.40
58072;BME280;60383;46.626;18.866;2023-05-09T11:30:08;100914.06;;;20.83;36.07
58072;BME280;60383;46.626;18.866;2023-05-09T11:33:01;100901.34;;;20.27;38.35
58072;BME280;60383;46.626;18.866;2023-05-09T11:35:26;100904.53;;;20.24;38.23
58072;BME280;60383;46.626;18.866;2023-05-09T11:37:59;100901.81;;;20.57;38.69
58072;BME280;60383;46.626;18.866;2023-05-09T11:40:25;100897.38;;;21.03;37.07
58072;BME280;60383;46.626;18.866;2023-05-09T11:42:53;100896.22;;;21.38;37.46
58072;BME280;60383;46.626;18.866;2023-05-09T11:45:21;100900.72;;;20.38;37.62
58072;BME280;60383;46.626;18.866;2023-05-09T11:47:48;100895.97;;;20.25;37.97
58072;BME280;60383;46.626;18.866;2023-05-09T11:50:16;100890.41;;;20.25;37.19
58072;BME280;60383;46.626;18.866;2023-05-09T11:52:42;100883.19;;;19.76;38.09
58072;BME280;60383;46.626;18.866;2023-05-09T11:57:35;100883.16;;;20.24;38.75
58072;BME280;60383;46.626;18.866;2023-05-09T12:00:04;100879.56;;;20.64;36.48
58072;BME280;60383;46.626;18.866;2023-05-09T12:02:30;100869.88;;;20.20;36.42
58072;BME280;60383;46.626;18.866;2023-05-09T12:05:05;100871.44;;;20.63;38.40
58072;BME280;60383;46.626;18.866;2023-05-09T12:07:31;100868.63;;;20.36;37.01
58072;BME280;60383;46.626;18.866;2023-05-09T12:09:56;100871.19;;;20.51;37.62
58072;BME280;60383;46.626;18.866;2023-05-09T12:12:22;100862.03;;;20.64;38.03
58072;BME280;60383;46.626;18.866;2023-05-09T12:14:47;100862.88;;;20.78;37.75
58072;BME280;60383;46.626;18.866;2023-05-09T12:17:13;100857.66;;;20.14;39.64
58072;BME280;60383;46.626;18.866;2023-05-09T12:19:39;100855.75;;;20.08;40.09
58072;BME280;60383;46.626;18.866;2023-05-09T12:22:04;100851.91;;;20.29;40.15
58072;BME280;60383;46.626;18.866;2023-05-09T12:24:34;100864.16;;;20.68;40.30
58072;BME280;60383;46.626;18.866;2023-05-09T12:27:00;100861.09;;;20.23;39.35
58072;BME280;60383;46.626;18.866;2023-05-09T12:29:26;100851.50;;;20.39;39.51
58072;BME280;60383;46.626;18.866;2023-05-09T12:31:52;100857.72;;;20.48;37.88
58072;BME280;60383;46.626;18.866;2023-05-09T12:34:18;100853.44;;;20.52;38.57
58072;BME280;60383;46.626;18.866;2023-05-09T12:36:45;100845.09;;;20.38;38.37
58072;BME280;60383;46.626;18.866;2023-05-09T12:39:19;100841.03;;;20.21;38.61
58072;BME280;60383;46.626;18.866;2023-05-09T12:41:50;100832.88;;;20.26;39.16
58072;BME280;60383;46.626;18.866;2023-05-09T12:44:24;100836.97;;;20.43;38.56
58072;BME280;60383;46.626;18.866;2023-05-09T12:47:01;100832.22;;;20.24;39.03
58072;BME280;60383;46.626;18.866;2023-05-09T12:49:28;100833.63;;;19.79;39.68
58072;BME280;60383;46.626;18.866;2023-05-09T12:51:56;100828.34;;;19.50;41.98
58072;BME280;60383;46.626;18.866;2023-05-09T12:54:26;100828.47;;;19.28;42.58
58072;BME280;60383;46.626;18.866;2023-05-09T12:56:52;100825.91;;;18.91;42.20
58072;BME280;60383;46.626;18.866;2023-05-09T12:59:24;100826.25;;;18.10;44.32
58072;BME280;60383;46.626;18.866;2023-05-09T13:01:52;100815.28;;;18.45;44.33
58072;BME280;60383;46.626;18.866;2023-05-09T13:04:19;100818.09;;;18.51;44.09
58072;BME280;60383;46.626;18.866;2023-05-09T13:06:51;100810.75;;;18.65;41.89